sensor_id;sensor_type;location;lat;lon;timestamp;P1;durP1;ratioP1;P2;durP2;ratioP2
6077;SDS011;3067;49.470;10.394;2023-08-24T00:00:16;3.80;;;3.50;;
6077;SDS011;3067;49.470;10.394;2023-08-24T00:02:44;4.37;;;3.93;;
6077;SDS011;3067;49.470;10.394;2023-08-24T00:05:12;8.47;;;4.23;;
6077;SDS011;3067;49.470;10.394;2023-08-24T00:07:39;4.13;;;3.83;;
6077;SDS011;3067;49.470;10.394;2023-08-24T00:10:06;4.97;;;4.00;;
6077;SDS011;3067;49.470;10.394;2023-08-24T00:12:33;7.27;;;3.70;;
6077;SDS011;3067;49.470;10.394;2023-08-24T00:15:03;4.50;;;3.97;;
6077;SDS011;3067;49.470;10.394;2023-08-24T00:17:31;5.50;;;4.43;;
6077;SDS011;3067;49.470;10.394;2023-08-24T00:19:58;4.73;;;4.33;;
6077;SDS011;3067;49.470;10.394;2023-08-24T00:22:29;7.17;;;4.70;;
6077;SDS011;3067;49.470;10.394;2023-08-24T00:24:56;6.03;;;4.63;;
6077;SDS011;3067;49.470;10.394;2023-08-24T00:27:23;5.20;;;4.70;;
6077;SDS011;3067;49.470;10.394;2023-08-24T00:29:50;4.90;;;4.50;;
6077;SDS011;3067;49.470;10.394;2023-08-24T00:32:19;6.43;;;4.57;;
6077;SDS011;3067;49.470;10.394;2023-08-24T00:34:46;5.07;;;4.60;;
6077;SDS011;3067;49.470;10.394;2023-08-24T00:37:13;4.67;;;4.27;;
6077;SDS011;3067;49.470;10.394;2023-08-24T00:39:40;5.03;;;4.50;;
6077;SDS011;3067;49.470;10.394;2023-08-24T00:42:07;4.73;;;4.43;;
6077;SDS011;3067;49.470;10.394;2023-08-24T00:44:38;4.87;;;4.47;;
6077;SDS011;3067;49.470;10.394;2023-08-24T00:47:05;7.60;;;4.63;;
6077;SDS011;3067;49.470;10.394;2023-08-24T00:49:35;5.83;;;4.33;;
6077;SDS011;3067;49.470;10.394;2023-08-24T00:52:02;4.87;;;4.57;;
6077;SDS011;3067;49.470;10.394;2023-08-24T00:54:30;5.00;;;4.77;;
6077;SDS011;3067;49.470;10.394;2023-08-24T00:56:57;8.93;;;4.50;;
6077;SDS011;3067;49.470;10.394;2023-08-24T00:59:25;4.93;;;4.37;;
6077;SDS011;3067;49.470;10.394;2023-08-24T01:01:52;4.53;;;4.10;;
6077;SDS011;3067;49.470;10.394;2023-08-24T01:04:19;4.80;;;4.30;;
6077;SDS011;3067;49.470;10.394;2023-08-24T01:06:48;5.10;;;4.70;;
6077;SDS011;3067;49.470;10.394;2023-08-24T01:09:15;4.73;;;4.43;;
6077;SDS011;3067;49.470;10.394;2023-08-24T01:11:45;7.63;;;4.50;;
6077;SDS011;3067;49.470;10.394;2023-08-24T01:14:23;4.57;;;4.27;;
6077;SDS011;3067;49.470;10.394;2023-08-24T01:16:58;8.97;;;4.67;;
6077;SDS011;3067;49.470;10.394;2023-08-24T01:19:33;5.27;;;4.50;;
6077;SDS011;3067;49.470;10.394;2023-08-24T01:22:07;4.40;;;4.20;;
6077;SDS011;3067;49.470;10.394;2023-08-24T01:24:44;4.93;;;4.17;;
6077;SDS011;3067;49.470;10.394;2023-08-24T01:27:15;5.23;;;3.90;;
6077;SDS011;3067;49.470;10.394;2023-08-24T01:29:43;5.00;;;4.67;;
6077;SDS011;3067;49.470;10.394;2023-08-24T01:32:10;4.90;;;4.50;;
6077;SDS011;3067;49.470;10.394;2023-08-24T01:34:37;4.80;;;4.40;;
6077;SDS011;3067;49.470;10.394;2023-08-24T01:37:05;4.30;;;4.00;;
6077;SDS011;3067;49.470;10.394;2023-08-24T01:39:35;5.07;;;4.60;;
6077;SDS011;3067;49.470;10.394;2023-08-24T01:42:08;4.73;;;4.33;;
6077;SDS011;3067;49.470;10.394;2023-08-24T01:44:42;5.13;;;4.13;;
6077;SDS011;3067;49.470;10.394;2023-08-24T01:47:11;4.50;;;4.20;;
6077;SDS011;3067;49.470;10.394;2023-08-24T01:49:39;6.13;;;4.17;;
6077;SDS011;3067;49.470;10.394;2023-08-24T01:52:07;4.60;;;4.30;;
6077;SDS011;3067;49.470;10.394;2023-08-24T01:54:35;4.10;;;3.80;;
6077;SDS011;3067;49.470;10.394;2023-08-24T01:57:04;4.03;;;3.83;;
6077;SDS011;3067;49.470;10.394;2023-08-24T01:59:32;4.77;;;4.47;;
6077;SDS011;3067;49.470;10.394;2023-08-24T02:02:00;4.23;;;4.03;;
6077;SDS011;3067;49.470;10.394;2023-08-24T02:04:27;4.63;;;4.33;;
6077;SDS011;3067;49.470;10.394;2023-08-24T02:06:55;4.80;;;4.40;;
6077;SDS011;3067;49.470;10.394;2023-08-24T02:09:22;4.33;;;4.10;;
6077;SDS011;3067;49.470;10.394;2023-08-24T02:11:49;5.03;;;4.70;;
6077;SDS011;3067;49.470;10.394;2023-08-24T02:14:16;5.73;;;4.60;;
6077;SDS011;3067;49.470;10.394;2023-08-24T02:16:43;4.93;;;4.53;;
6077;SDS011;3067;49.470;10.394;2023-08-24T02:19:12;6.20;;;4.80;;
6077;SDS011;3067;49.470;10.394;2023-08-24T02:21:39;5.47;;;4.83;;
6077;SDS011;3067;49.470;10.394;2023-08-24T02:24:06;5.40;;;5.00;;
6077;SDS011;3067;49.470;10.394;2023-08-24T02:26:33;7.73;;;4.97;;
6077;SDS011;3067;49.470;10.394;2023-08-24T02:29:01;5.03;;;4.63;;
6077;SDS011;3067;49.470;10.394;2023-08-24T02:31:28;5.87;;;5.23;;
6077;SDS011;3067;49.470;10.394;2023-08-24T02:33:55;6.10;;;5.60;;
6077;SDS011;3067;49.470;10.394;2023-08-24T02:36:24;5.67;;;5.27;;
6077;SDS011;3067;49.470;10.394;2023-08-24T02:38:51;5.43;;;5.00;;
6077;SDS011;3067;49.470;10.394;2023-08-24T02:41:18;5.37;;;4.90;;
6077;SDS011;3067;49.470;10.394;2023-08-24T02:43:45;4.47;;;4.27;;
6077;SDS011;3067;49.470;10.394;2023-08-24T02:46:12;7.50;;;4.83;;
6077;SDS011;3067;49.470;10.394;2023-08-24T02:48:39;5.67;;;5.10;;
6077;SDS011;3067;49.470;10.394;2023-08-24T02:51:07;7.33;;;4.77;;
6077;SDS011;3067;49.470;10.394;2023-08-24T02:53:36;5.73;;;5.20;;
6077;SDS011;3067;49.470;10.394;2023-08-24T02:56:03;5.60;;;5.10;;
6077;SDS011;3067;49.470;10.394;2023-08-24T02:58:30;8.90;;;5.50;;
6077;SDS011;3067;49.470;10.394;2023-08-24T03:00:57;7.47;;;5.60;;
6077;SDS011;3067;49.470;10.394;2023-08-24T03:03:25;5.30;;;5.00;;
6077;SDS011;3067;49.470;10.394;2023-08-24T03:05:54;7.07;;;6.07;;
6077;SDS011;3067;49.470;10.394;2023-08-24T03:08:22;5.70;;;5.20;;
6077;SDS011;3067;49.470;10.394;2023-08-24T03:10:51;9.30;;;5.20;;
6077;SDS011;3067;49.470;10.394;2023-08-24T03:13:18;6.77;;;5.40;;
6077;SDS011;3067;49.470;10.394;2023-08-24T03:15:45;6.30;;;5.67;;
6077;SDS011;3067;49.470;10.394;2023-08-24T03:18:13;7.00;;;5.17;;
6077;SDS011;3067;49.470;10.394;2023-08-24T03:20:41;5.97;;;5.43;;
6077;SDS011;3067;49.470;10.394;2023-08-24T03:23:09;5.80;;;5.30;;
6077;SDS011;3067;49.470;10.394;2023-08-24T03:25:37;5.83;;;5.40;;
6077;SDS011;3067;49.470;10.394;2023-08-24T03:28:07;6.10;;;5.53;;
6077;SDS011;3067;49.470;10.394;2023-08-24T03:30:35;5.73;;;5.23;;
6077;SDS011;3067;49.470;10.394;2023-08-24T03:33:03;6.00;;;5.40;;
6077;SDS011;3067;49.470;10.394;2023-08-24T03:35:31;8.20;;;5.30;;
6077;SDS011;3067;49.470;10.394;2023-08-24T03:37:59;5.23;;;4.83;;
6077;SDS011;3067;49.470;10.394;2023-08-24T03:40:26;5.50;;;5.00;;
6077;SDS011;3067;49.470;10.394;2023-08-24T03:42:53;10.17;;;5.00;;
6077;SDS011;3067;49.470;10.394;2023-08-24T03:45:22;5.97;;;5.07;;
6077;SDS011;3067;49.470;10.394;2023-08-24T03:47:49;7.10;;;5.00;;
6077;SDS011;3067;49.470;10.394;2023-08-24T03:50:16;5.50;;;5.10;;
6077;SDS011;3067;49.470;10.394;2023-08-24T03:52:43;5.57;;;5.07;;
6077;SDS011;3067;49.470;10.394;2023-08-24T03:55:10;9.63;;;4.83;;
6077;SDS011;3067;49.470;10.394;2023-08-24T03:57:38;5.30;;;4.80;;
6077;SDS011;3067;49.470;10.394;2023-08-24T04:00:05;5.60;;;5.20;;
6077;SDS011;3067;49.470;10.394;2023-08-24T04:02:37;7.43;;;5.20;;
6077;SDS011;3067;49.470;10.394;2023-08-24T04:05:04;5.40;;;4.90;;
6077;SDS011;3067;49.470;10.394;2023-08-24T04:07:32;5.80;;;5.30;;
6077;SDS011;3067;49.470;10.394;2023-08-24T04:10:01;7.03;;;5.60;;
6077;SDS011;3067;49.470;10.394;2023-08-24T04:12:29;8.30;;;5.30;;
6077;SDS011;3067;49.470;10.394;2023-08-24T04:14:57;6.40;;;5.77;;
6077;SDS011;3067;49.470;10.394;2023-08-24T04:17:24;6.07;;;5.50;;
6077;SDS011;3067;49.470;10.394;2023-08-24T04:19:52;6.20;;;5.60;;
6077;SDS011;3067;49.470;10.394;2023-08-24T04:22:19;5.93;;;5.20;;
6077;SDS011;3067;49.470;10.394;2023-08-24T04:24:46;5.93;;;5.43;;
6077;SDS011;3067;49.470;10.394;2023-08-24T04:27:14;7.30;;;5.97;;
6077;SDS011;3067;49.470;10.394;2023-08-24T04:29:41;11.40;;;5.80;;
6077;SDS011;3067;49.470;10.394;2023-08-24T04:32:08;5.90;;;5.47;;
6077;SDS011;3067;49.470;10.394;2023-08-24T04:34:35;9.10;;;5.53;;
6077;SDS011;3067;49.470;10.394;2023-08-24T04:37:03;11.93;;;5.97;;
6077;SDS011;3067;49.470;10.394;2023-08-24T04:39:32;8.73;;;5.80;;
6077;SDS011;3067;49.470;10.394;2023-08-24T04:41:59;6.40;;;5.80;;
6077;SDS011;3067;49.470;10.394;2023-08-24T04:44:27;6.73;;;5.30;;
6077;SDS011;3067;49.470;10.394;2023-08-24T04:46:54;5.83;;;5.40;;
6077;SDS011;3067;49.470;10.394;2023-08-24T04:49:21;8.70;;;5.43;;
6077;SDS011;3067;49.470;10.394;2023-08-24T04:51:48;7.00;;;5.63;;
6077;SDS011;3067;49.470;10.394;2023-08-24T04:54:17;10.73;;;6.37;;
6077;SDS011;3067;49.470;10.394;2023-08-24T04:56:44;6.33;;;5.63;;
6077;SDS011;3067;49.470;10.394;2023-08-24T04:59:11;6.90;;;6.20;;
6077;SDS011;3067;49.470;10.394;2023-08-24T05:01:39;7.03;;;6.13;;
6077;SDS011;3067;49.470;10.394;2023-08-24T05:04:06;7.47;;;6.13;;
6077;SDS011;3067;49.470;10.394;2023-08-24T05:06:33;7.70;;;6.50;;
6077;SDS011;3067;49.470;10.394;2023-08-24T05:09:00;7.07;;;6.50;;
6077;SDS011;3067;49.470;10.394;2023-08-24T05:11:28;10.70;;;7.00;;
6077;SDS011;3067;49.470;10.394;2023-08-24T05:13:56;8.10;;;7.37;;
6077;SDS011;3067;49.470;10.394;2023-08-24T05:16:23;8.73;;;7.57;;
6077;SDS011;3067;49.470;10.394;2023-08-24T05:18:51;13.83;;;7.30;;
6077;SDS011;3067;49.470;10.394;2023-08-24T05:21:18;8.83;;;7.50;;
6077;SDS011;3067;49.470;10.394;2023-08-24T05:23:45;9.93;;;7.20;;
6077;SDS011;3067;49.470;10.394;2023-08-24T05:26:12;9.23;;;6.80;;
6077;SDS011;3067;49.470;10.394;2023-08-24T05:28:42;7.93;;;7.20;;
6077;SDS011;3067;49.470;10.394;2023-08-24T05:31:09;6.87;;;6.10;;
6077;SDS011;3067;49.470;10.394;2023-08-24T05:33:36;7.00;;;6.40;;
6077;SDS011;3067;49.470;10.394;2023-08-24T05:36:03;13.93;;;6.40;;
6077;SDS011;3067;49.470;10.394;2023-08-24T05:38:31;7.10;;;5.80;;
6077;SDS011;3067;49.470;10.394;2023-08-24T05:40:58;13.40;;;6.13;;
6077;SDS011;3067;49.470;10.394;2023-08-24T05:43:25;29.60;;;6.43;;
6077;SDS011;3067;49.470;10.394;2023-08-24T05:45:54;17.77;;;5.90;;
6077;SDS011;3067;49.470;10.394;2023-08-24T05:48:22;5.93;;;5.43;;
6077;SDS011;3067;49.470;10.394;2023-08-24T05:50:50;11.77;;;5.57;;
6077;SDS011;3067;49.470;10.394;2023-08-24T05:53:17;16.13;;;5.50;;
6077;SDS011;3067;49.470;10.394;2023-08-24T05:55:44;16.90;;;5.83;;
6077;SDS011;3067;49.470;10.394;2023-08-24T05:58:11;11.50;;;5.80;;
6077;SDS011;3067;49.470;10.394;2023-08-24T06:00:38;15.27;;;6.03;;
6077;SDS011;3067;49.470;10.394;2023-08-24T06:03:06;8.20;;;5.60;;
6077;SDS011;3067;49.470;10.394;2023-08-24T06:05:33;8.03;;;6.03;;
6077;SDS011;3067;49.470;10.394;2023-08-24T06:08:01;6.60;;;6.00;;
6077;SDS011;3067;49.470;10.394;2023-08-24T06:10:28;7.03;;;6.43;;
6077;SDS011;3067;49.470;10.394;2023-08-24T06:12:56;11.67;;;6.70;;
6077;SDS011;3067;49.470;10.394;2023-08-24T06:15:23;11.80;;;6.47;;
6077;SDS011;3067;49.470;10.394;2023-08-24T06:17:53;7.37;;;6.57;;
6077;SDS011;3067;49.470;10.394;2023-08-24T06:20:21;9.63;;;6.90;;
6077;SDS011;3067;49.470;10.394;2023-08-24T06:22:48;11.13;;;7.43;;
6077;SDS011;3067;49.470;10.394;2023-08-24T06:25:15;8.60;;;7.37;;
6077;SDS011;3067;49.470;10.394;2023-08-24T06:27:43;9.70;;;7.40;;
6077;SDS011;3067;49.470;10.394;2023-08-24T06:30:10;8.17;;;7.50;;
6077;SDS011;3067;49.470;10.394;2023-08-24T06:32:38;9.90;;;6.90;;
6077;SDS011;3067;49.470;10.394;2023-08-24T06:35:05;8.67;;;7.83;;
6077;SDS011;3067;49.470;10.394;2023-08-24T06:37:34;9.47;;;7.50;;
6077;SDS011;3067;49.470;10.394;2023-08-24T06:40:01;12.20;;;7.70;;
6077;SDS011;3067;49.470;10.394;2023-08-24T06:42:30;9.27;;;8.10;;
6077;SDS011;3067;49.470;10.394;2023-08-24T06:44:57;11.70;;;8.00;;
6077;SDS011;3067;49.470;10.394;2023-08-24T06:47:24;10.03;;;8.30;;
6077;SDS011;3067;49.470;10.394;2023-08-24T06:49:51;18.03;;;8.43;;
6077;SDS011;3067;49.470;10.394;2023-08-24T06:52:18;9.53;;;8.60;;
6077;SDS011;3067;49.470;10.394;2023-08-24T06:54:47;10.53;;;9.50;;
6077;SDS011;3067;49.470;10.394;2023-08-24T06:57:18;15.53;;;9.67;;
6077;SDS011;3067;49.470;10.394;2023-08-24T06:59:45;15.80;;;10.90;;
6077;SDS011;3067;49.470;10.394;2023-08-24T07:02:12;16.53;;;10.67;;
6077;SDS011;3067;49.470;10.394;2023-08-24T07:04:40;15.87;;;11.13;;
6077;SDS011;3067;49.470;10.394;2023-08-24T07:07:07;13.20;;;11.80;;
6077;SDS011;3067;49.470;10.394;2023-08-24T07:09:34;22.67;;;12.27;;
6077;SDS011;3067;49.470;10.394;2023-08-24T07:12:03;12.23;;;10.97;;
6077;SDS011;3067;49.470;10.394;2023-08-24T07:14:32;12.40;;;11.00;;
6077;SDS011;3067;49.470;10.394;2023-08-24T07:16:59;11.60;;;10.60;;
6077;SDS011;3067;49.470;10.394;2023-08-24T07:19:26;14.20;;;10.87;;
6077;SDS011;3067;49.470;10.394;2023-08-24T07:21:53;13.80;;;10.37;;
6077;SDS011;3067;49.470;10.394;2023-08-24T07:24:20;20.80;;;11.07;;
6077;SDS011;3067;49.470;10.394;2023-08-24T07:26:51;20.97;;;10.87;;
6077;SDS011;3067;49.470;10.394;2023-08-24T07:29:20;11.70;;;10.70;;
6077;SDS011;3067;49.470;10.394;2023-08-24T07:31:47;12.87;;;10.87;;
6077;SDS011;3067;49.470;10.394;2023-08-24T07:34:14;11.43;;;10.33;;
6077;SDS011;3067;49.470;10.394;2023-08-24T07:36:41;13.40;;;10.00;;
6077;SDS011;3067;49.470;10.394;2023-08-24T07:39:10;13.03;;;10.50;;
6077;SDS011;3067;49.470;10.394;2023-08-24T07:41:37;11.57;;;10.37;;
6077;SDS011;3067;49.470;10.394;2023-08-24T07:44:04;10.30;;;9.30;;
6077;SDS011;3067;49.470;10.394;2023-08-24T07:46:32;12.20;;;9.60;;
6077;SDS011;3067;49.470;10.394;2023-08-24T07:48:59;12.03;;;9.07;;
6077;SDS011;3067;49.470;10.394;2023-08-24T07:51:26;15.40;;;9.97;;
6077;SDS011;3067;49.470;10.394;2023-08-24T07:53:53;11.73;;;10.57;;
6077;SDS011;3067;49.470;10.394;2023-08-24T07:56:21;14.33;;;10.27;;
6077;SDS011;3067;49.470;10.394;2023-08-24T07:58:48;11.40;;;10.20;;
6077;SDS011;3067;49.470;10.394;2023-08-24T08:01:15;12.07;;;9.80;;
6077;SDS011;3067;49.470;10.394;2023-08-24T08:03:44;12.13;;;8.90;;
6077;SDS011;3067;49.470;10.394;2023-08-24T08:06:11;9.73;;;8.93;;
6077;SDS011;3067;49.470;10.394;2023-08-24T08:08:38;15.83;;;8.47;;
6077;SDS011;3067;49.470;10.394;2023-08-24T08:11:06;9.63;;;8.83;;
6077;SDS011;3067;49.470;10.394;2023-08-24T08:13:33;9.13;;;8.43;;
6077;SDS011;3067;49.470;10.394;2023-08-24T08:16:00;13.07;;;8.90;;
6077;SDS011;3067;49.470;10.394;2023-08-24T08:18:28;14.30;;;8.80;;
6077;SDS011;3067;49.470;10.394;2023-08-24T08:20:57;11.93;;;8.23;;
6077;SDS011;3067;49.470;10.394;2023-08-24T08:23:24;9.67;;;8.00;;
6077;SDS011;3067;49.470;10.394;2023-08-24T08:25:51;13.43;;;8.20;;
6077;SDS011;3067;49.470;10.394;2023-08-24T08:28:18;8.57;;;7.73;;
6077;SDS011;3067;49.470;10.394;2023-08-24T08:30:47;12.23;;;7.60;;
6077;SDS011;3067;49.470;10.394;2023-08-24T08:33:15;12.10;;;8.10;;
6077;SDS011;3067;49.470;10.394;2023-08-24T08:35:42;8.40;;;7.60;;
6077;SDS011;3067;49.470;10.394;2023-08-24T08:38:10;10.67;;;7.57;;
6077;SDS011;3067;49.470;10.394;2023-08-24T08:40:38;12.83;;;8.00;;
6077;SDS011;3067;49.470;10.394;2023-08-24T08:43:06;10.77;;;6.43;;
6077;SDS011;3067;49.470;10.394;2023-08-24T08:45:33;7.83;;;6.07;;
6077;SDS011;3067;49.470;10.394;2023-08-24T08:48:01;7.50;;;6.30;;
6077;SDS011;3067;49.470;10.394;2023-08-24T08:50:30;10.00;;;6.67;;
6077;SDS011;3067;49.470;10.394;2023-08-24T08:53:00;8.13;;;6.70;;
6077;SDS011;3067;49.470;10.394;2023-08-24T08:55:29;7.57;;;6.57;;
6077;SDS011;3067;49.470;10.394;2023-08-24T08:57:58;11.17;;;7.40;;
6077;SDS011;3067;49.470;10.394;2023-08-24T09:00:26;8.30;;;7.60;;
6077;SDS011;3067;49.470;10.394;2023-08-24T09:02:54;9.90;;;6.37;;
6077;SDS011;3067;49.470;10.394;2023-08-24T09:05:24;8.63;;;7.10;;
6077;SDS011;3067;49.470;10.394;2023-08-24T09:07:52;7.37;;;6.73;;
6077;SDS011;3067;49.470;10.394;2023-08-24T09:10:21;8.17;;;7.00;;
6077;SDS011;3067;49.470;10.394;2023-08-24T09:12:49;11.90;;;6.87;;
6077;SDS011;3067;49.470;10.394;2023-08-24T09:15:23;12.20;;;7.30;;
6077;SDS011;3067;49.470;10.394;2023-08-24T09:17:51;9.47;;;6.80;;
6077;SDS011;3067;49.470;10.394;2023-08-24T09:20:19;6.70;;;6.03;;
6077;SDS011;3067;49.470;10.394;2023-08-24T09:22:47;9.90;;;6.00;;
6077;SDS011;3067;49.470;10.394;2023-08-24T09:25:14;14.03;;;6.00;;
6077;SDS011;3067;49.470;10.394;2023-08-24T09:27:41;7.67;;;5.83;;
6077;SDS011;3067;49.470;10.394;2023-08-24T09:30:10;18.53;;;6.30;;
6077;SDS011;3067;49.470;10.394;2023-08-24T09:32:38;15.27;;;5.67;;
6077;SDS011;3067;49.470;10.394;2023-08-24T09:35:07;10.57;;;5.73;;
6077;SDS011;3067;49.470;10.394;2023-08-24T09:37:36;16.33;;;5.40;;
6077;SDS011;3067;49.470;10.394;2023-08-24T09:40:04;10.20;;;4.97;;
6077;SDS011;3067;49.470;10.394;2023-08-24T09:42:36;7.70;;;5.00;;
6077;SDS011;3067;49.470;10.394;2023-08-24T09:45:05;7.70;;;4.37;;
6077;SDS011;3067;49.470;10.394;2023-08-24T09:47:36;6.43;;;4.30;;
6077;SDS011;3067;49.470;10.394;2023-08-24T09:50:04;11.27;;;3.80;;
6077;SDS011;3067;49.470;10.394;2023-08-24T09:52:32;5.43;;;4.40;;
6077;SDS011;3067;49.470;10.394;2023-08-24T09:55:02;10.55;;;3.60;;
6077;SDS011;3067;49.470;10.394;2023-08-24T09:57:31;4.18;;;3.50;;
6077;SDS011;3067;49.470;10.394;2023-08-24T10:00:02;8.25;;;3.60;;
6077;SDS011;3067;49.470;10.394;2023-08-24T10:02:36;5.68;;;3.58;;
6077;SDS011;3067;49.470;10.394;2023-08-24T10:05:09;3.38;;;3.20;;
6077;SDS011;3067;49.470;10.394;2023-08-24T10:07:37;8.23;;;3.50;;
6077;SDS011;3067;49.470;10.394;2023-08-24T10:10:06;4.25;;;3.60;;
6077;SDS011;3067;49.470;10.394;2023-08-24T10:12:39;4.50;;;3.50;;
6077;SDS011;3067;49.470;10.394;2023-08-24T10:15:10;3.50;;;3.30;;
6077;SDS011;3067;49.470;10.394;2023-08-24T10:17:39;6.38;;;3.80;;
6077;SDS011;3067;49.470;10.394;2023-08-24T10:20:07;3.70;;;3.53;;
6077;SDS011;3067;49.470;10.394;2023-08-24T10:25:06;5.88;;;3.78;;
6077;SDS011;3067;49.470;10.394;2023-08-24T10:27:35;3.50;;;3.40;;
6077;SDS011;3067;49.470;10.394;2023-08-24T10:30:08;10.18;;;3.42;;
6077;SDS011;3067;49.470;10.394;2023-08-24T10:32:39;4.93;;;3.83;;
6077;SDS011;3067;49.470;10.394;2023-08-24T10:35:07;3.97;;;3.78;;
6077;SDS011;3067;49.470;10.394;2023-08-24T10:37:34;5.68;;;4.05;;
6077;SDS011;3067;49.470;10.394;2023-08-24T10:40:02;3.60;;;3.50;;
6077;SDS011;3067;49.470;10.394;2023-08-24T10:42:42;10.43;;;4.00;;
6077;SDS011;3067;49.470;10.394;2023-08-24T10:45:13;7.65;;;3.45;;
6077;SDS011;3067;49.470;10.394;2023-08-24T10:47:45;3.60;;;3.40;;
6077;SDS011;3067;49.470;10.394;2023-08-24T10:50:13;9.10;;;3.70;;
6077;SDS011;3067;49.470;10.394;2023-08-24T10:52:43;4.88;;;3.92;;
6077;SDS011;3067;49.470;10.394;2023-08-24T10:55:23;3.83;;;3.60;;
6077;SDS011;3067;49.470;10.394;2023-08-24T10:57:57;5.15;;;3.58;;
6077;SDS011;3067;49.470;10.394;2023-08-24T11:00:26;3.97;;;3.65;;
6077;SDS011;3067;49.470;10.394;2023-08-24T11:02:56;3.45;;;3.15;;
6077;SDS011;3067;49.470;10.394;2023-08-24T11:05:24;4.00;;;3.20;;
6077;SDS011;3067;49.470;10.394;2023-08-24T11:07:56;3.63;;;3.42;;
6077;SDS011;3067;49.470;10.394;2023-08-24T11:10:25;3.88;;;3.58;;
6077;SDS011;3067;49.470;10.394;2023-08-24T11:13:06;3.40;;;3.20;;
6077;SDS011;3067;49.470;10.394;2023-08-24T11:15:34;5.15;;;3.35;;
6077;SDS011;3067;49.470;10.394;2023-08-24T11:18:19;8.05;;;3.20;;
6077;SDS011;3067;49.470;10.394;2023-08-24T11:20:48;3.53;;;3.22;;
6077;SDS011;3067;49.470;10.394;2023-08-24T11:23:16;3.70;;;3.08;;
6077;SDS011;3067;49.470;10.394;2023-08-24T11:25:44;3.60;;;3.00;;
6077;SDS011;3067;49.470;10.394;2023-08-24T11:28:16;3.35;;;3.17;;
6077;SDS011;3067;49.470;10.394;2023-08-24T11:30:44;3.00;;;2.90;;
6077;SDS011;3067;49.470;10.394;2023-08-24T11:33:11;4.70;;;3.20;;
6077;SDS011;3067;49.470;10.394;2023-08-24T11:35:41;7.05;;;3.55;;
6077;SDS011;3067;49.470;10.394;2023-08-24T11:38:09;3.50;;;3.20;;
6077;SDS011;3067;49.470;10.394;2023-08-24T11:40:36;3.20;;;2.92;;
6077;SDS011;3067;49.470;10.394;2023-08-24T11:43:03;3.72;;;3.15;;
6077;SDS011;3067;49.470;10.394;2023-08-24T11:45:31;3.35;;;3.25;;
6077;SDS011;3067;49.470;10.394;2023-08-24T11:47:59;3.90;;;3.70;;
6077;SDS011;3067;49.470;10.394;2023-08-24T11:50:29;3.70;;;3.40;;
6077;SDS011;3067;49.470;10.394;2023-08-24T11:52:57;4.35;;;3.50;;
6077;SDS011;3067;49.470;10.394;2023-08-24T11:55:26;4.53;;;3.35;;
6077;SDS011;3067;49.470;10.394;2023-08-24T11:57:53;3.70;;;3.50;;
6077;SDS011;3067;49.470;10.394;2023-08-24T12:00:21;5.47;;;3.30;;
6077;SDS011;3067;49.470;10.394;2023-08-24T12:02:49;3.85;;;3.40;;
6077;SDS011;3067;49.470;10.394;2023-08-24T12:05:20;3.40;;;3.10;;
6077;SDS011;3067;49.470;10.394;2023-08-24T12:07:48;3.65;;;3.08;;
6077;SDS011;3067;49.470;10.394;2023-08-24T12:10:17;9.85;;;3.20;;
6077;SDS011;3067;49.470;10.394;2023-08-24T12:12:44;4.38;;;2.83;;
6077;SDS011;3067;49.470;10.394;2023-08-24T12:15:15;4.78;;;3.25;;
6077;SDS011;3067;49.470;10.394;2023-08-24T12:17:45;3.60;;;2.70;;
6077;SDS011;3067;49.470;10.394;2023-08-24T12:20:19;3.25;;;3.15;;
6077;SDS011;3067;49.470;10.394;2023-08-24T12:22:51;3.05;;;2.85;;
6077;SDS011;3067;49.470;10.394;2023-08-24T12:25:20;3.00;;;2.90;;
6077;SDS011;3067;49.470;10.394;2023-08-24T12:27:48;5.32;;;2.90;;
6077;SDS011;3067;49.470;10.394;2023-08-24T12:30:16;4.30;;;2.92;;
6077;SDS011;3067;49.470;10.394;2023-08-24T12:32:44;4.07;;;3.10;;
6077;SDS011;3067;49.470;10.394;2023-08-24T12:35:13;3.08;;;2.90;;
6077;SDS011;3067;49.470;10.394;2023-08-24T12:37:41;3.75;;;2.90;;
6077;SDS011;3067;49.470;10.394;2023-08-24T12:40:08;2.83;;;2.60;;
6077;SDS011;3067;49.470;10.394;2023-08-24T12:42:37;3.00;;;2.75;;
6077;SDS011;3067;49.470;10.394;2023-08-24T12:45:04;3.08;;;2.90;;
6077;SDS011;3067;49.470;10.394;2023-08-24T12:47:33;3.08;;;2.88;;
6077;SDS011;3067;49.470;10.394;2023-08-24T12:50:04;2.90;;;2.70;;
6077;SDS011;3067;49.470;10.394;2023-08-24T12:52:40;2.85;;;2.55;;
6077;SDS011;3067;49.470;10.394;2023-08-24T12:55:21;3.33;;;2.97;;
6077;SDS011;3067;49.470;10.394;2023-08-24T12:57:50;8.57;;;2.95;;
6077;SDS011;3067;49.470;10.394;2023-08-24T13:00:18;2.92;;;2.70;;
6077;SDS011;3067;49.470;10.394;2023-08-24T13:02:45;3.20;;;2.90;;
6077;SDS011;3067;49.470;10.394;2023-08-24T13:05:12;6.03;;;2.85;;
6077;SDS011;3067;49.470;10.394;2023-08-24T13:07:39;3.70;;;2.70;;
6077;SDS011;3067;49.470;10.394;2023-08-24T13:10:06;2.90;;;2.70;;
6077;SDS011;3067;49.470;10.394;2023-08-24T13:12:34;3.13;;;2.90;;
6077;SDS011;3067;49.470;10.394;2023-08-24T13:15:03;2.90;;;2.80;;
6077;SDS011;3067;49.470;10.394;2023-08-24T13:17:31;3.45;;;3.15;;
6077;SDS011;3067;49.470;10.394;2023-08-24T13:19:58;4.93;;;2.90;;
6077;SDS011;3067;49.470;10.394;2023-08-24T13:22:25;7.78;;;2.95;;
6077;SDS011;3067;49.470;10.394;2023-08-24T13:24:52;3.20;;;2.92;;
6077;SDS011;3067;49.470;10.394;2023-08-24T13:27:19;6.20;;;2.85;;
6077;SDS011;3067;49.470;10.394;2023-08-24T13:29:46;9.38;;;3.38;;
6077;SDS011;3067;49.470;10.394;2023-08-24T13:32:15;3.90;;;3.60;;
6077;SDS011;3067;49.470;10.394;2023-08-24T13:34:42;4.47;;;3.05;;
6077;SDS011;3067;49.470;10.394;2023-08-24T13:37:09;3.05;;;2.95;;
6077;SDS011;3067;49.470;10.394;2023-08-24T13:39:36;5.18;;;3.10;;
6077;SDS011;3067;49.470;10.394;2023-08-24T13:42:03;5.70;;;3.10;;
6077;SDS011;3067;49.470;10.394;2023-08-24T13:44:30;3.25;;;3.13;;
6077;SDS011;3067;49.470;10.394;2023-08-24T13:46:57;3.05;;;2.90;;
6077;SDS011;3067;49.470;10.394;2023-08-24T13:49:26;3.28;;;3.08;;
6077;SDS011;3067;49.470;10.394;2023-08-24T13:51:53;3.35;;;3.10;;
6077;SDS011;3067;49.470;10.394;2023-08-24T13:54:20;4.78;;;3.22;;
6077;SDS011;3067;49.470;10.394;2023-08-24T13:56:48;4.90;;;3.22;;
6077;SDS011;3067;49.470;10.394;2023-08-24T13:59:15;6.85;;;2.95;;
6077;SDS011;3067;49.470;10.394;2023-08-24T14:01:42;3.33;;;3.03;;
6077;SDS011;3067;49.470;10.394;2023-08-24T14:04:09;4.63;;;3.10;;
6077;SDS011;3067;49.470;10.394;2023-08-24T14:06:38;2.80;;;2.70;;
6077;SDS011;3067;49.470;10.394;2023-08-24T14:09:05;5.10;;;3.00;;
6077;SDS011;3067;49.470;10.394;2023-08-24T14:11:32;5.95;;;2.88;;
6077;SDS011;3067;49.470;10.394;2023-08-24T14:14:00;3.20;;;2.90;;
6077;SDS011;3067;49.470;10.394;2023-08-24T14:16:27;3.47;;;3.08;;
6077;SDS011;3067;49.470;10.394;2023-08-24T14:18:54;5.45;;;2.97;;
6077;SDS011;3067;49.470;10.394;2023-08-24T14:21:21;8.98;;;3.00;;
6077;SDS011;3067;49.470;10.394;2023-08-24T14:23:50;3.00;;;2.50;;
6077;SDS011;3067;49.470;10.394;2023-08-24T14:26:17;3.08;;;2.97;;
6077;SDS011;3067;49.470;10.394;2023-08-24T14:28:48;6.95;;;2.30;;
6077;SDS011;3067;49.470;10.394;2023-08-24T14:31:15;3.80;;;2.47;;
6077;SDS011;3067;49.470;10.394;2023-08-24T14:33:43;4.05;;;2.70;;
6077;SDS011;3067;49.470;10.394;2023-08-24T14:36:10;2.72;;;2.60;;
6077;SDS011;3067;49.470;10.394;2023-08-24T14:38:38;2.78;;;2.60;;
6077;SDS011;3067;49.470;10.394;2023-08-24T14:41:08;2.92;;;2.70;;
6077;SDS011;3067;49.470;10.394;2023-08-24T14:43:36;2.65;;;2.45;;
6077;SDS011;3067;49.470;10.394;2023-08-24T14:46:04;2.70;;;2.50;;
6077;SDS011;3067;49.470;10.394;2023-08-24T14:48:31;2.90;;;2.67;;
6077;SDS011;3067;49.470;10.394;2023-08-24T14:50:58;2.30;;;2.20;;
6077;SDS011;3067;49.470;10.394;2023-08-24T14:53:25;7.28;;;2.38;;
6077;SDS011;3067;49.470;10.394;2023-08-24T14:55:54;3.90;;;2.45;;
6077;SDS011;3067;49.470;10.394;2023-08-24T14:58:23;5.47;;;2.40;;
6077;SDS011;3067;49.470;10.394;2023-08-24T15:00:51;2.38;;;2.25;;
6077;SDS011;3067;49.470;10.394;2023-08-24T15:03:20;2.53;;;2.42;;
6077;SDS011;3067;49.470;10.394;2023-08-24T15:05:55;3.00;;;2.50;;